createdAt,value
2019-02-22T00:00:50.181Z,60.41
2019-02-22T00:01:55.436Z,60.25
2019-02-22T00:02:58.927Z,60.13
2019-02-22T00:04:02.516Z,60.15
2019-02-22T00:05:06.279Z,60.15
2019-02-22T00:06:09.778Z,60.03
2019-02-22T00:07:13.287Z,60.02
2019-02-22T00:08:16.719Z,59.96
2019-02-22T00:09:20.148Z,60.00
2019-02-22T00:10:23.751Z,59.93
2019-02-22T00:11:27.180Z,60.07
2019-02-22T00:12:30.746Z,60.12
2019-02-22T00:13:34.204Z,60.10
2019-02-22T00:14:37.663Z,59.97
2019-02-22T00:15:41.132Z,60.03
2019-02-22T00:16:44.656Z,60.09
2019-02-22T00:17:48.221Z,59.91
2019-02-22T00:18:51.655Z,59.94
2019-02-22T00:19:55.086Z,59.88
2019-02-22T00:20:58.541Z,59.74
2019-02-22T00:22:02.013Z,59.84
2019-02-22T00:23:05.506Z,59.82
2019-02-22T00:24:08.939Z,59.90
2019-02-22T00:25:12.441Z,59.86
2019-02-22T00:26:15.891Z,59.87
2019-02-22T00:27:19.387Z,59.76
2019-02-22T00:28:22.827Z,59.84
2019-02-22T00:29:26.338Z,60.01
2019-02-22T00:30:29.849Z,60.12
2019-02-22T00:31:33.380Z,60.08
2019-02-22T00:32:36.903Z,60.29
2019-02-22T00:33:40.343Z,60.19
2019-02-22T00:34:43.855Z,60.16
2019-02-22T00:35:47.409Z,60.11
2019-02-22T00:36:50.836Z,60.38
2019-02-22T00:37:54.277Z,62.01
2019-02-22T00:38:57.711Z,62.01
2019-02-22T00:40:01.153Z,62.63
2019-02-22T00:41:04.664Z,62.90
2019-02-22T00:42:08.120Z,63.04
2019-02-22T00:43:11.575Z,63.34
2019-02-22T00:44:15.002Z,63.34
2019-02-22T00:45:18.442Z,63.20
2019-02-22T00:46:21.942Z,62.96
2019-02-22T00:47:25.387Z,63.53
2019-02-22T00:48:28.829Z,63.98
2019-02-22T00:49:32.260Z,64.18
2019-02-22T00:50:35.689Z,64.14
2019-02-22T00:51:39.199Z,64.70
2019-02-22T00:52:42.658Z,64.70
2019-02-22T00:53:46.108Z,64.67
2019-02-22T00:54:49.605Z,64.87
2019-02-22T00:55:53.053Z,64.87
2019-02-22T00:56:56.515Z,64.84
2019-02-22T00:57:59.961Z,64.93
2019-02-22T00:59:03.398Z,65.12
2019-02-22T01:00:09.181Z,65.43
2019-02-22T01:01:12.610Z,65.41
2019-02-22T01:02:16.050Z,65.86
2019-02-22T01:03:19.573Z,65.86
2019-02-22T01:04:23.089Z,66.03
2019-02-22T01:05:26.516Z,65.81
2019-02-22T01:06:29.954Z,65.81
2019-02-22T01:07:33.403Z,66.08
2019-02-22T01:08:36.848Z,66.13
2019-02-22T01:09:40.365Z,66.21
2019-02-22T01:10:43.818Z,66.39
2019-02-22T01:11:47.265Z,66.47
2019-02-22T01:12:50.681Z,66.56
2019-02-22T01:13:54.231Z,66.58
2019-02-22T01:14:57.674Z,66.63
2019-02-22T01:16:01.103Z,66.70
2019-02-22T01:17:04.527Z,66.69
2019-02-22T01:18:08.034Z,66.60
2019-02-22T01:19:11.515Z,66.62
2019-02-22T01:20:15.022Z,66.58
2019-02-22T01:21:18.489Z,66.81
2019-02-22T01:22:21.912Z,66.81
2019-02-22T01:23:25.351Z,66.89
2019-02-22T01:24:28.876Z,66.91
2019-02-22T01:25:32.373Z,66.78
2019-02-22T01:26:35.819Z,66.93
2019-02-22T01:27:39.250Z,67.04
2019-02-22T01:28:42.669Z,67.15
2019-02-22T01:29:46.190Z,67.27
2019-02-22T01:30:49.644Z,67.08
2019-02-22T01:31:53.075Z,67.26
2019-02-22T01:32:56.516Z,67.35
2019-02-22T01:34:00.013Z,67.63
2019-02-22T01:35:03.461Z,67.68
2019-02-22T01:36:06.904Z,67.79
2019-02-22T01:37:10.405Z,67.63
2019-02-22T01:38:13.850Z,67.93
2019-02-22T01:39:17.274Z,68.27
2019-02-22T01:40:20.722Z,68.36
2019-02-22T01:41:24.155Z,68.49
2019-02-22T01:42:27.591Z,68.49
2019-02-22T01:43:33.381Z,68.08
2019-02-22T01:44:36.256Z,68.23
2019-02-22T01:45:39.702Z,68.49
2019-02-22T01:46:43.128Z,68.74
2019-02-22T01:47:46.630Z,68.81
2019-02-22T01:48:50.083Z,68.69
2019-02-22T01:49:53.545Z,68.71
2019-02-22T01:50:56.999Z,68.70
2019-02-22T01:52:00.546Z,68.84
2019-02-22T01:53:03.974Z,68.84
2019-02-22T01:54:07.410Z,69.04
2019-02-22T01:55:10.910Z,69.05
2019-02-22T01:56:14.504Z,69.01
2019-02-22T01:57:17.930Z,69.03
2019-02-22T01:58:21.435Z,69.03
2019-02-22T01:59:24.868Z,68.88
2019-02-22T02:00:28.378Z,69.06
2019-02-22T02:01:31.909Z,69.03
2019-02-22T02:02:35.339Z,69.10
2019-02-22T02:03:38.766Z,69.03
2019-02-22T02:04:42.212Z,69.08
2019-02-22T02:05:45.715Z,69.26
2019-02-22T02:06:49.232Z,69.61
2019-02-22T02:07:52.676Z,69.97
2019-02-22T02:08:56.112Z,69.98
2019-02-22T02:09:59.533Z,70.44
2019-02-22T02:11:02.959Z,70.16
2019-02-22T02:12:06.417Z,70.23
2019-02-22T02:13:09.883Z,70.50
2019-02-22T02:14:13.313Z,70.50
2019-02-22T02:15:16.761Z,70.73
2019-02-22T02:16:20.190Z,71.01
2019-02-22T02:17:23.648Z,71.35
2019-02-22T02:18:27.098Z,71.27
2019-02-22T02:19:30.530Z,71.00
2019-02-22T02:20:33.962Z,71.30
2019-02-22T02:21:37.482Z,71.27
2019-02-22T02:22:40.913Z,71.27
2019-02-22T02:23:44.430Z,71.48
2019-02-22T02:24:47.851Z,71.57
2019-02-22T02:25:51.351Z,71.48
2019-02-22T02:26:54.790Z,71.47
2019-02-22T02:27:58.235Z,71.66
2019-02-22T02:29:01.750Z,71.60
2019-02-22T02:30:07.617Z,72.04
2019-02-22T02:31:11.031Z,72.04
2019-02-22T02:32:14.473Z,72.48
2019-02-22T02:33:17.987Z,72.48
2019-02-22T02:34:21.483Z,72.54
2019-02-22T02:35:24.984Z,72.81
2019-02-22T02:36:28.434Z,72.81
2019-02-22T02:37:31.869Z,72.79
2019-02-22T02:38:35.301Z,72.82
2019-02-22T02:39:38.773Z,72.78
2019-02-22T02:40:42.191Z,72.78
2019-02-22T02:41:45.621Z,72.67
2019-02-22T02:42:49.053Z,72.42
2019-02-22T02:43:52.511Z,72.42
2019-02-22T02:44:55.944Z,72.61
2019-02-22T02:45:59.377Z,72.76
2019-02-22T02:47:02.806Z,72.64
2019-02-22T02:48:06.248Z,72.72
2019-02-22T02:49:09.704Z,72.64
2019-02-22T02:50:16.187Z,72.83
2019-02-22T02:51:19.696Z,73.02
2019-02-22T02:52:23.166Z,73.09
2019-02-22T02:53:26.604Z,73.28
2019-02-22T02:54:30.057Z,73.24
2019-02-22T02:55:34.950Z,73.28
2019-02-22T02:56:38.453Z,73.28
2019-02-22T02:57:41.894Z,73.09
2019-02-22T02:58:45.327Z,72.99
2019-02-22T02:59:48.774Z,73.04
2019-02-22T03:00:52.214Z,73.04
2019-02-22T03:01:55.718Z,73.18
2019-02-22T03:02:59.287Z,73.18
2019-02-22T03:04:02.718Z,73.12
2019-02-22T03:05:06.311Z,73.32
2019-02-22T03:06:11.402Z,73.32
2019-02-22T03:07:16.463Z,73.11
2019-02-22T03:08:20.467Z,73.16
2019-02-22T03:09:23.906Z,72.96
2019-02-22T03:10:27.398Z,72.86
2019-02-22T03:11:30.860Z,72.96
2019-02-22T03:12:34.270Z,72.96
2019-02-22T03:13:37.703Z,73.09
2019-02-22T03:14:41.139Z,73.78
2019-02-22T03:15:44.656Z,73.78
2019-02-22T03:16:48.047Z,73.87
2019-02-22T03:17:51.487Z,74.22
2019-02-22T03:18:54.945Z,74.56
2019-02-22T03:19:58.393Z,75.23
2019-02-22T03:21:01.836Z,75.23
2019-02-22T03:22:05.342Z,74.80
2019-02-22T03:23:08.779Z,74.87
2019-02-22T03:24:12.223Z,74.87
2019-02-22T03:25:15.656Z,74.52
2019-02-22T03:26:19.115Z,74.63
2019-02-22T03:27:22.635Z,74.42
2019-02-22T03:28:26.065Z,74.42
2019-02-22T03:29:29.507Z,75.03
2019-02-22T03:30:33.027Z,75.28
2019-02-22T03:31:36.560Z,75.90
2019-02-22T03:32:40.010Z,75.90
2019-02-22T03:33:43.451Z,75.42
2019-02-22T03:34:46.959Z,75.66
2019-02-22T03:35:50.388Z,75.89
2019-02-22T03:36:53.869Z,75.94
2019-02-22T03:37:57.309Z,75.94
2019-02-22T03:39:00.742Z,76.36
2019-02-22T03:40:05.910Z,76.43
2019-02-22T03:41:09.349Z,76.65
2019-02-22T03:42:12.814Z,76.82
2019-02-22T03:43:16.248Z,77.26
2019-02-22T03:44:19.688Z,77.45
2019-02-22T03:45:23.126Z,77.69
2019-02-22T03:46:26.563Z,77.78
2019-02-22T03:47:30.093Z,77.84
2019-02-22T03:48:33.533Z,77.84
2019-02-22T03:49:37.066Z,78.10
2019-02-22T03:50:40.505Z,78.29
2019-02-22T03:51:43.944Z,78.63
2019-02-22T03:52:51.529Z,78.63
2019-02-22T03:53:57.393Z,78.51
2019-02-22T03:55:00.502Z,78.44
2019-02-22T03:56:04.078Z,78.39
2019-02-22T03:57:07.642Z,78.37
2019-02-22T03:58:11.184Z,78.85
2019-02-22T03:59:14.750Z,78.97
2019-02-22T04:00:18.259Z,78.96
2019-02-22T04:01:21.819Z,78.95
2019-02-22T04:02:25.405Z,79.02
2019-02-22T04:03:28.918Z,79.02
2019-02-22T04:04:32.445Z,79.06
2019-02-22T04:05:35.879Z,79.07
2019-02-22T04:06:39.310Z,79.03
2019-02-22T04:07:42.739Z,79.01
2019-02-22T04:08:46.492Z,79.37
2019-02-22T04:09:49.921Z,79.37
2019-02-22T04:10:53.363Z,79.36
2019-02-22T04:11:56.786Z,79.45
2019-02-22T04:13:00.234Z,79.68
2019-02-22T04:14:03.692Z,79.71
2019-02-22T04:15:09.683Z,79.73
2019-02-22T04:16:13.186Z,79.74
2019-02-22T04:17:16.617Z,79.61
2019-02-22T04:18:20.136Z,79.78
2019-02-22T04:19:23.625Z,80.13
2019-02-22T04:20:27.152Z,80.26
2019-02-22T04:21:30.600Z,80.17
2019-02-22T04:22:34.095Z,80.21
2019-02-22T04:23:37.595Z,80.21
2019-02-22T04:24:41.067Z,80.07
2019-02-22T04:25:44.642Z,80.20
2019-02-22T04:26:48.079Z,80.06
2019-02-22T04:27:51.513Z,79.94
2019-02-22T04:28:54.952Z,79.77
2019-02-22T04:29:58.410Z,79.67
2019-02-22T04:31:01.839Z,79.89
2019-02-22T04:32:05.340Z,79.97
2019-02-22T04:33:08.906Z,79.97
2019-02-22T04:34:12.375Z,80.10
2019-02-22T04:35:15.785Z,80.08
2019-02-22T04:36:19.230Z,80.09
2019-02-22T04:37:22.661Z,80.23
2019-02-22T04:38:26.105Z,80.33
2019-02-22T04:39:29.536Z,80.15
2019-02-22T04:40:33.066Z,80.26
2019-02-22T04:41:36.519Z,80.34
2019-02-22T04:42:39.961Z,80.40
2019-02-22T04:43:43.387Z,80.48
2019-02-22T04:44:46.828Z,80.43
2019-02-22T04:45:50.277Z,80.65
2019-02-22T04:46:53.719Z,80.65
2019-02-22T04:47:57.281Z,80.57
2019-02-22T04:49:00.655Z,80.49
2019-02-22T04:50:04.462Z,80.33
2019-02-22T04:51:07.979Z,80.32
2019-02-22T04:52:11.508Z,80.25
2019-02-22T04:53:14.941Z,80.17
2019-02-22T04:54:18.387Z,79.96
2019-02-22T04:55:21.849Z,80.12
2019-02-22T04:56:25.338Z,80.14
2019-02-22T04:57:28.846Z,80.18
2019-02-22T04:58:32.278Z,80.14
2019-02-22T04:59:35.733Z,80.26
2019-02-22T05:00:39.182Z,80.26
2019-02-22T05:01:42.606Z,80.16
2019-02-22T05:02:46.129Z,80.16
2019-02-22T05:03:49.573Z,80.23
2019-02-22T05:04:53.081Z,80.32
2019-02-22T05:05:56.515Z,80.01
2019-02-22T05:06:59.983Z,80.01
2019-02-22T05:08:03.418Z,80.36
2019-02-22T05:09:07.000Z,80.31
2019-02-22T05:10:10.430Z,80.26
2019-02-22T05:11:13.873Z,80.32
2019-02-22T05:12:17.312Z,80.60
2019-02-22T05:13:20.746Z,80.60
2019-02-22T05:14:24.187Z,80.44
2019-02-22T05:15:27.631Z,80.40
2019-02-22T05:16:31.067Z,80.60
2019-02-22T05:17:35.719Z,80.59
2019-02-22T05:18:39.318Z,80.62
2019-02-22T05:19:42.762Z,80.62
2019-02-22T05:20:46.261Z,80.53
2019-02-22T05:21:49.719Z,80.41
2019-02-22T05:23:03.363Z,80.39
2019-02-22T05:23:58.325Z,80.51
2019-02-22T05:25:01.766Z,80.60
2019-02-22T05:26:05.353Z,80.66
2019-02-22T05:27:08.774Z,80.63
2019-02-22T05:28:12.224Z,80.86
2019-02-22T05:29:15.677Z,81.16
2019-02-22T05:30:19.181Z,81.14
2019-02-22T05:31:22.606Z,81.07
2019-02-22T05:32:26.122Z,80.88
2019-02-22T05:33:29.561Z,80.88
2019-02-22T05:34:33.011Z,80.68
2019-02-22T05:35:36.450Z,80.67
2019-02-22T05:36:39.889Z,80.54
2019-02-22T05:37:43.394Z,80.54
2019-02-22T05:38:46.843Z,80.99
2019-02-22T05:39:50.322Z,80.87
2019-02-22T05:40:53.737Z,81.01
2019-02-22T05:41:57.182Z,81.06
2019-02-22T05:43:00.623Z,81.13
2019-02-22T05:44:04.071Z,80.98
2019-02-22T05:45:07.939Z,81.13
2019-02-22T05:46:11.431Z,81.25
2019-02-22T05:47:14.875Z,81.36
2019-02-22T05:48:18.300Z,81.46
2019-02-22T05:49:22.561Z,81.59
2019-02-22T05:50:26.065Z,81.65
2019-02-22T05:51:29.573Z,81.79
2019-02-22T05:52:33.104Z,81.72
2019-02-22T05:53:36.551Z,81.67
2019-02-22T05:54:40.045Z,81.56
2019-02-22T05:55:44.426Z,81.37
2019-02-22T05:56:47.963Z,81.27
2019-02-22T05:57:51.387Z,81.15
2019-02-22T05:58:54.818Z,81.20
2019-02-22T05:59:58.292Z,81.30
2019-02-22T06:01:01.743Z,81.35
2019-02-22T06:02:05.363Z,81.22
2019-02-22T06:03:08.895Z,81.12
2019-02-22T06:04:12.352Z,81.10
2019-02-22T06:05:15.845Z,81.27
2019-02-22T06:06:19.384Z,81.42
2019-02-22T06:07:22.923Z,81.42
2019-02-22T06:08:26.506Z,81.39
2019-02-22T06:09:29.951Z,81.27
2019-02-22T06:10:33.491Z,81.18
2019-02-22T06:11:36.928Z,81.28
2019-02-22T06:12:40.516Z,81.37
2019-02-22T06:13:43.978Z,81.60
2019-02-22T06:14:47.414Z,81.89
2019-02-22T06:15:50.858Z,81.63
2019-02-22T06:16:54.298Z,81.63
2019-02-22T06:17:57.727Z,81.64
2019-02-22T06:19:01.235Z,81.63
2019-02-22T06:20:07.382Z,81.65
2019-02-22T06:21:10.896Z,81.70
2019-02-22T06:22:14.358Z,81.74
2019-02-22T06:23:17.781Z,81.44
2019-02-22T06:24:21.229Z,81.57
2019-02-22T06:25:24.664Z,81.57
2019-02-22T06:26:30.391Z,81.92
2019-02-22T06:27:33.385Z,82.43
2019-02-22T06:28:36.889Z,82.43
2019-02-22T06:29:40.335Z,82.18
2019-02-22T06:30:43.833Z,82.18
2019-02-22T06:31:47.381Z,82.52
2019-02-22T06:32:50.852Z,82.61
2019-02-22T06:33:54.296Z,82.73
2019-02-22T06:34:57.737Z,82.75
2019-02-22T06:36:01.208Z,82.66
2019-02-22T06:37:04.787Z,82.67
2019-02-22T06:38:08.254Z,82.67
2019-02-22T06:39:11.764Z,82.67
2019-02-22T06:40:15.196Z,82.55
2019-02-22T06:41:18.632Z,82.49
2019-02-22T06:42:22.171Z,82.49
2019-02-22T06:43:25.624Z,82.39
2019-02-22T06:44:29.068Z,82.37
2019-02-22T06:45:32.499Z,82.28
2019-02-22T06:46:35.930Z,82.47
2019-02-22T06:47:39.387Z,82.62
2019-02-22T06:48:42.851Z,82.55
2019-02-22T06:49:46.290Z,82.55
2019-02-22T06:50:49.733Z,82.83
2019-02-22T06:51:53.158Z,82.88
2019-02-22T06:52:56.615Z,82.84
2019-02-22T06:54:00.079Z,82.90
2019-02-22T06:55:04.059Z,82.72
2019-02-22T06:56:07.625Z,82.72
2019-02-22T06:57:11.058Z,83.05
2019-02-22T06:58:14.606Z,82.96
2019-02-22T06:59:18.051Z,82.94
2019-02-22T07:00:21.535Z,82.80
2019-02-22T07:01:24.947Z,82.80
2019-02-22T07:02:28.380Z,82.95
2019-02-22T07:03:31.835Z,83.04
2019-02-22T07:04:35.272Z,83.24
2019-02-22T07:05:38.709Z,83.24
2019-02-22T07:06:42.195Z,83.00
2019-02-22T07:07:45.689Z,83.09
2019-02-22T07:08:49.157Z,83.08
2019-02-22T07:09:52.668Z,83.28
2019-02-22T07:10:57.874Z,83.28
2019-02-22T07:12:05.719Z,83.09
2019-02-22T07:13:09.149Z,83.12
2019-02-22T07:14:12.608Z,83.12
2019-02-22T07:15:16.045Z,82.93
2019-02-22T07:16:19.560Z,82.97
2019-02-22T07:17:23.003Z,83.48
2019-02-22T07:18:26.439Z,83.48
2019-02-22T07:19:29.894Z,83.21
2019-02-22T07:20:33.347Z,83.25
2019-02-22T07:21:51.657Z,83.26
2019-02-22T07:22:42.008Z,83.34
2019-02-22T07:23:45.434Z,83.25
2019-02-22T07:24:48.893Z,83.17
2019-02-22T07:25:52.322Z,83.14
2019-02-22T07:26:55.771Z,83.15
2019-02-22T07:27:59.246Z,83.11
2019-02-22T07:29:02.648Z,82.82
2019-02-22T07:30:09.138Z,83.11
2019-02-22T07:31:12.593Z,83.11
2019-02-22T07:32:16.037Z,83.29
2019-02-22T07:33:19.538Z,83.29
2019-02-22T07:34:23.054Z,83.56
2019-02-22T07:35:26.529Z,83.71
2019-02-22T07:36:30.039Z,83.79
2019-02-22T07:37:33.501Z,83.82
2019-02-22T07:38:36.918Z,83.77
2019-02-22T07:39:40.346Z,83.80
2019-02-22T07:40:43.807Z,83.89
2019-02-22T07:41:47.323Z,84.05
2019-02-22T07:42:50.769Z,84.10
2019-02-22T07:43:54.211Z,84.03
2019-02-22T07:44:57.641Z,83.94
2019-02-22T07:46:01.100Z,83.94
2019-02-22T07:47:04.618Z,83.84
2019-02-22T07:48:08.067Z,83.84
2019-02-22T07:49:11.497Z,83.71
2019-02-22T07:50:15.063Z,83.78
2019-02-22T07:51:18.453Z,83.76
2019-02-22T07:52:21.887Z,83.77
2019-02-22T07:53:25.317Z,83.79
2019-02-22T07:54:28.751Z,83.85
2019-02-22T07:55:32.192Z,83.88
2019-02-22T07:56:35.702Z,83.84
2019-02-22T07:57:40.121Z,83.89
2019-02-22T07:58:43.766Z,83.91
2019-02-22T07:59:47.222Z,83.92
2019-02-22T08:00:50.705Z,83.85
2019-02-22T08:01:54.300Z,83.77
2019-02-22T08:02:57.731Z,83.69
2019-02-22T08:04:01.173Z,83.83
2019-02-22T08:05:05.153Z,83.83
2019-02-22T08:06:08.600Z,83.88
2019-02-22T08:07:12.155Z,83.87
2019-02-22T08:08:15.591Z,83.85
2019-02-22T08:09:19.027Z,83.72
2019-02-22T08:10:22.526Z,83.72
2019-02-22T08:11:25.960Z,83.89
2019-02-22T08:12:29.411Z,83.84
2019-02-22T08:13:32.883Z,83.82
2019-02-22T08:14:36.365Z,83.67
2019-02-22T08:15:39.879Z,83.67
2019-02-22T08:16:43.392Z,83.61
2019-02-22T08:17:47.060Z,83.59
2019-02-22T08:19:01.199Z,83.56
2019-02-22T08:19:55.606Z,83.54
2019-02-22T08:20:59.044Z,83.57
2019-02-22T08:22:03.526Z,83.57
2019-02-22T08:23:07.151Z,83.57
2019-02-22T08:24:10.593Z,83.81
2019-02-22T08:25:14.107Z,83.81
2019-02-22T08:26:17.538Z,83.68
2019-02-22T08:27:20.976Z,83.74
2019-02-22T08:28:24.432Z,83.83
2019-02-22T08:29:27.864Z,83.87
2019-02-22T08:30:31.373Z,83.87
2019-02-22T08:31:34.813Z,83.71
2019-02-22T08:32:38.338Z,83.68
2019-02-22T08:33:41.784Z,83.64
2019-02-22T08:34:45.978Z,83.67
2019-02-22T08:35:49.532Z,83.76
2019-02-22T08:36:52.963Z,83.93
2019-02-22T08:37:56.471Z,83.93
2019-02-22T08:38:59.925Z,83.74
2019-02-22T08:40:03.709Z,83.74
2019-02-22T08:41:07.169Z,83.66
2019-02-22T08:42:10.589Z,83.80
2019-02-22T08:43:14.167Z,83.88
2019-02-22T08:44:17.624Z,83.79
2019-02-22T08:45:21.139Z,83.56
2019-02-22T08:46:24.566Z,83.56
2019-02-22T08:47:28.002Z,83.65
2019-02-22T08:48:31.440Z,83.66
2019-02-22T08:49:34.900Z,83.37
2019-02-22T08:50:38.613Z,83.37
2019-02-22T08:51:42.046Z,83.43
2019-02-22T08:52:45.602Z,83.43
2019-02-22T08:53:48.984Z,83.51
2019-02-22T08:54:52.515Z,83.51
2019-02-22T08:55:55.950Z,83.67
2019-02-22T08:56:59.390Z,83.74
2019-02-22T08:58:02.888Z,83.66
2019-02-22T08:59:06.340Z,83.68
2019-02-22T09:00:12.284Z,83.68
2019-02-22T09:01:20.016Z,83.71
2019-02-22T09:02:23.445Z,83.70
2019-02-22T09:03:26.888Z,83.52
2019-02-22T09:04:30.308Z,83.82
2019-02-22T09:05:33.835Z,83.75
2019-02-22T09:06:37.325Z,83.75
2019-02-22T09:07:40.767Z,83.65
2019-02-22T09:08:44.348Z,83.55
2019-02-22T09:09:48.068Z,83.41
2019-02-22T09:11:00.131Z,83.41
2019-02-22T09:11:57.763Z,83.14
2019-02-22T09:13:01.267Z,82.98
2019-02-22T09:14:04.692Z,82.77
2019-02-22T09:15:09.765Z,82.70
2019-02-22T09:16:13.253Z,82.39
2019-02-22T09:17:16.740Z,82.74
2019-02-22T09:18:20.198Z,82.60
2019-02-22T09:19:23.685Z,82.56
2019-02-22T09:20:27.127Z,82.50
2019-02-22T09:21:30.595Z,82.42
2019-02-22T09:22:34.043Z,82.44
2019-02-22T09:23:37.490Z,82.42
2019-02-22T09:24:40.934Z,82.29
2019-02-22T09:25:44.526Z,82.32
2019-02-22T09:26:48.155Z,82.38
2019-02-22T09:27:51.606Z,82.41
2019-02-22T09:28:55.633Z,82.39
2019-02-22T09:29:59.336Z,82.34
2019-02-22T09:31:02.901Z,82.35
2019-02-22T09:32:06.509Z,82.37
2019-02-22T09:33:09.970Z,82.28
2019-02-22T09:34:13.404Z,82.20
2019-02-22T09:35:16.841Z,82.32
2019-02-22T09:36:20.276Z,82.38
2019-02-22T09:37:23.806Z,82.35
2019-02-22T09:38:27.244Z,82.35
2019-02-22T09:39:30.679Z,82.31
2019-02-22T09:40:34.171Z,82.38
2019-02-22T09:41:37.606Z,82.26
2019-02-22T09:42:41.064Z,82.13
2019-02-22T09:43:54.641Z,82.11
2019-02-22T09:44:49.718Z,82.06
2019-02-22T09:45:53.218Z,82.10
2019-02-22T09:46:56.655Z,82.16
2019-02-22T09:48:00.164Z,81.96
2019-02-22T09:49:03.789Z,81.81
2019-02-22T09:50:10.152Z,81.79
2019-02-22T09:51:13.589Z,81.76
2019-02-22T09:52:17.034Z,81.66
2019-02-22T09:53:20.489Z,81.65
2019-02-22T09:54:23.933Z,81.72
2019-02-22T09:55:27.367Z,81.72
2019-02-22T09:56:30.885Z,81.80
2019-02-22T09:57:34.315Z,81.80
2019-02-22T09:58:37.758Z,81.47
2019-02-22T09:59:41.314Z,81.30
2019-02-22T10:00:44.952Z,81.33
2019-02-22T10:01:48.428Z,81.17
2019-02-22T10:02:51.864Z,81.24
2019-02-22T10:03:55.573Z,81.16
2019-02-22T10:04:59.318Z,81.08
2019-02-22T10:06:03.086Z,80.97
2019-02-22T10:07:06.774Z,80.83
2019-02-22T10:08:10.324Z,80.67
2019-02-22T10:09:14.241Z,80.50
2019-02-22T10:10:17.781Z,80.50
2019-02-22T10:11:21.233Z,80.65
2019-02-22T10:12:24.674Z,80.73
2019-02-22T10:13:28.157Z,80.71
2019-02-22T10:14:31.750Z,80.64
2019-02-22T10:15:35.214Z,80.51
2019-02-22T10:16:38.821Z,80.31
2019-02-22T10:17:42.311Z,80.24
2019-02-22T10:18:45.848Z,80.17
2019-02-22T10:19:49.299Z,80.07
2019-02-22T10:20:53.186Z,80.00
2019-02-22T10:21:57.614Z,79.97
2019-02-22T10:23:01.336Z,79.88
2019-02-22T10:24:04.875Z,79.77
2019-02-22T10:25:08.765Z,79.67
2019-02-22T10:26:12.269Z,79.49
2019-02-22T10:27:15.790Z,79.39
2019-02-22T10:28:19.295Z,79.32
2019-02-22T10:29:22.798Z,79.42
2019-02-22T10:30:26.402Z,79.49
2019-02-22T10:31:29.992Z,79.46
2019-02-22T10:32:33.636Z,79.40
2019-02-22T10:33:37.136Z,79.47
2019-02-22T10:34:40.585Z,79.53
2019-02-22T10:35:44.039Z,79.42
2019-02-22T10:36:47.566Z,79.45
2019-02-22T10:37:51.021Z,79.46
2019-02-22T10:38:54.652Z,79.42
2019-02-22T10:39:58.094Z,79.40
2019-02-22T10:41:01.838Z,79.14
2019-02-22T10:42:05.354Z,78.91
2019-02-22T10:43:08.979Z,78.87
2019-02-22T10:44:17.678Z,78.75
2019-02-22T10:45:17.776Z,78.79
2019-02-22T10:46:22.342Z,78.69
2019-02-22T10:47:26.123Z,78.69
2019-02-22T10:48:29.656Z,78.75
2019-02-22T10:49:33.175Z,78.73
2019-02-22T10:50:36.637Z,78.62
2019-02-22T10:51:40.262Z,78.58
2019-02-22T10:52:43.913Z,78.62
2019-02-22T10:53:47.479Z,78.69
2019-02-22T10:54:51.026Z,78.72
2019-02-22T10:55:54.494Z,78.74
2019-02-22T10:56:57.924Z,78.78
2019-02-22T10:58:01.587Z,78.74
2019-02-22T10:59:05.111Z,78.51
2019-02-22T11:00:15.224Z,78.72
2019-02-22T11:01:18.686Z,78.69
2019-02-22T11:02:22.177Z,78.69
2019-02-22T11:03:25.675Z,78.72
2019-02-22T11:04:29.180Z,78.75
2019-02-22T11:05:32.901Z,78.63
2019-02-22T11:06:36.377Z,78.44
2019-02-22T11:07:40.046Z,78.36
2019-02-22T11:08:43.550Z,78.32
2019-02-22T11:09:47.144Z,78.30
2019-02-22T11:10:50.811Z,78.15
2019-02-22T11:11:54.375Z,77.99
2019-02-22T11:12:57.838Z,77.93
2019-02-22T11:14:01.646Z,77.85
2019-02-22T11:15:08.170Z,77.64
2019-02-22T11:16:11.777Z,77.41
2019-02-22T11:17:15.434Z,77.28
2019-02-22T11:18:18.957Z,77.18
2019-02-22T11:19:22.588Z,77.16
2019-02-22T11:20:26.051Z,77.17
2019-02-22T11:21:29.637Z,77.13
2019-02-22T11:22:33.079Z,77.28
2019-02-22T11:23:36.543Z,77.29
2019-02-22T11:24:40.036Z,77.33
2019-02-22T11:25:43.665Z,77.30
2019-02-22T11:26:47.257Z,77.10
2019-02-22T11:27:50.694Z,77.16
2019-02-22T11:28:54.235Z,77.09
2019-02-22T11:29:57.752Z,77.06
2019-02-22T11:31:01.416Z,77.00
2019-02-22T11:32:04.998Z,77.14
2019-02-22T11:33:08.525Z,77.10
2019-02-22T11:34:12.274Z,76.91
2019-02-22T11:35:15.882Z,76.74
2019-02-22T11:36:19.540Z,76.77
2019-02-22T11:37:23.217Z,76.72
2019-02-22T11:38:27.040Z,76.74
2019-02-22T11:39:30.710Z,76.74
2019-02-22T11:40:34.206Z,76.78
2019-02-22T11:41:37.651Z,76.97
2019-02-22T11:42:41.134Z,76.90
2019-02-22T11:43:44.643Z,76.90
2019-02-22T11:44:48.302Z,76.78
2019-02-22T11:45:53.352Z,76.65
2019-02-22T11:46:57.173Z,76.55
2019-02-22T11:48:08.799Z,76.30
2019-02-22T11:49:06.517Z,76.30
2019-02-22T11:50:11.286Z,76.21
2019-02-22T11:51:15.301Z,76.10
2019-02-22T11:52:19.108Z,76.07
2019-02-22T11:53:22.712Z,75.96
2019-02-22T11:54:26.382Z,75.92
2019-02-22T11:55:30.007Z,75.89
2019-02-22T11:56:33.549Z,75.71
2019-02-22T11:57:37.212Z,75.69
2019-02-22T11:58:41.940Z,75.71
2019-02-22T11:59:45.349Z,75.57
2019-02-22T12:00:49.077Z,75.51
2019-02-22T12:01:53.039Z,75.33
2019-02-22T12:02:57.122Z,75.18
2019-02-22T12:04:00.631Z,75.05
2019-02-22T12:05:04.680Z,74.99
2019-02-22T12:06:08.374Z,74.89
2019-02-22T12:07:11.847Z,74.74
2019-02-22T12:08:15.279Z,74.52
2019-02-22T12:09:18.739Z,74.40
2019-02-22T12:10:22.211Z,74.34
2019-02-22T12:11:25.760Z,74.16
2019-02-22T12:12:29.411Z,73.90
2019-02-22T12:13:32.876Z,73.80
2019-02-22T12:14:36.561Z,73.61
2019-02-22T12:15:40.175Z,73.54
2019-02-22T12:16:43.613Z,73.46
2019-02-22T12:17:47.149Z,73.45
2019-02-22T12:18:50.613Z,73.27
2019-02-22T12:19:54.208Z,73.15
2019-02-22T12:20:57.871Z,72.97
2019-02-22T12:22:01.430Z,73.05
2019-02-22T12:23:05.100Z,73.06
2019-02-22T12:24:08.536Z,72.92
2019-02-22T12:25:13.126Z,72.77
2019-02-22T12:26:16.652Z,72.62
2019-02-22T12:27:20.080Z,72.53
2019-02-22T12:28:23.565Z,72.45
2019-02-22T12:29:27.005Z,72.31
2019-02-22T12:30:30.642Z,72.03
2019-02-22T12:31:34.441Z,71.41
2019-02-22T12:32:39.599Z,71.55
2019-02-22T12:33:43.094Z,71.57
2019-02-22T12:34:46.831Z,71.54
2019-02-22T12:35:50.228Z,71.43
2019-02-22T12:36:53.979Z,71.25
2019-02-22T12:37:57.503Z,70.93
2019-02-22T12:39:01.038Z,70.81
2019-02-22T12:40:06.895Z,70.47
2019-02-22T12:41:10.699Z,70.36
2019-02-22T12:42:14.256Z,70.22
2019-02-22T12:43:17.704Z,70.16
2019-02-22T12:44:21.172Z,70.07
2019-02-22T12:45:24.678Z,69.91
2019-02-22T12:46:28.239Z,69.55
2019-02-22T12:47:31.696Z,69.12
2019-02-22T12:48:35.283Z,68.44
2019-02-22T12:49:40.276Z,67.59
2019-02-22T12:50:43.843Z,67.55
2019-02-22T12:51:47.316Z,67.35
2019-02-22T12:52:50.843Z,67.39
2019-02-22T12:53:54.293Z,67.42
2019-02-22T12:54:57.831Z,67.37
2019-02-22T12:56:01.265Z,66.62
2019-02-22T12:57:04.720Z,65.36
2019-02-22T12:58:08.158Z,65.83
2019-02-22T12:59:11.590Z,65.90
2019-02-22T13:00:19.656Z,66.07
2019-02-22T13:01:24.608Z,66.30
2019-02-22T13:02:28.154Z,66.41
2019-02-22T13:03:31.779Z,66.25
2019-02-22T13:04:35.215Z,66.29
2019-02-22T13:05:38.655Z,66.69
2019-02-22T13:06:42.096Z,66.86
2019-02-22T13:07:45.599Z,67.02
2019-02-22T13:08:49.050Z,67.09
2019-02-22T13:09:52.473Z,67.16
2019-02-22T13:10:55.931Z,67.35
2019-02-22T13:11:59.386Z,67.49
2019-02-22T13:13:02.970Z,67.61
2019-02-22T13:14:06.565Z,67.65
2019-02-22T13:15:14.312Z,67.63
2019-02-22T13:16:17.065Z,67.63
2019-02-22T13:17:30.444Z,67.72
2019-02-22T13:18:25.757Z,67.93
2019-02-22T13:19:29.252Z,68.03
2019-02-22T13:20:32.743Z,68.11
2019-02-22T13:21:36.265Z,68.29
2019-02-22T13:22:39.717Z,68.23
2019-02-22T13:23:43.251Z,68.28
2019-02-22T13:24:46.727Z,68.30
2019-02-22T13:25:50.193Z,68.12
2019-02-22T13:26:53.621Z,68.19
2019-02-22T13:27:57.154Z,68.17
2019-02-22T13:29:00.762Z,68.30
2019-02-22T13:30:06.838Z,68.20
2019-02-22T13:31:10.567Z,68.12
2019-02-22T13:32:14.028Z,67.92
2019-02-22T13:33:17.519Z,67.66
2019-02-22T13:34:21.054Z,67.82
2019-02-22T13:35:24.505Z,67.78
2019-02-22T13:36:28.047Z,68.01
2019-02-22T13:37:31.553Z,67.91
2019-02-22T13:38:34.998Z,67.94
2019-02-22T13:39:38.463Z,67.81